Check out our new PWSWeather beta!
PWSweather.com
Personal Weather Stations
Station Observations
METEOC500
Santo Antonio, FunchalPT 2020

Santo AntonioFunchalPT 2020

Lat: 32.678227, Lon: -16.945054

Elevation: 1669.94751

Station Type: WH Series

High Low Average
Temperature 67.1°F19.5°C 56.1°F13.4°C 60.6°F15.9°C
Dew Point 55.0°F12.8°C 48.2°F9.0°C 51.1°F10.6°C
Winds 18.1 mph 29.1 kmh Calm Calm 4.0 mph WSW6.4 kmh WSW
Wind Gusts 27.5 mph44.3 kmh 2.5 mph4.0 kmh 11.0 mph17.7 kmh
Humidity 85% 52% 71%
Pressure 30.19 in1022.4 mb 30.12 in1020.0 mb -
Precipitation 0.00 in0.0 mm - -
Hour Temp Dew Point Humidity Winds Wind Gusts Pressure Precip Precip Rate Daily Precip Total
12:03 AM 59.2°F15.1°C 54.7°F12.6°C 85% 4.9 mph NNW7.9 kmh NNW 10.1 mph16.3 kmh 30.17 in1021.7 mb 0.00 in0.0 mm 0.00 in0.0 mm 0.00 in0.0 mm
12:18 AM 58.6°F14.8°C 53.8°F12.1°C 84% 7.6 mph NNW12.2 kmh NNW 10.1 mph16.3 kmh 30.16 in1021.3 mb 0.00 in0.0 mm 0.00 in0.0 mm 0.00 in0.0 mm
12:33 AM 58.3°F14.6°C 53.1°F11.7°C 83% 7.8 mph N12.6 kmh N 12.5 mph20.1 kmh 30.16 in1021.3 mb 0.00 in0.0 mm 0.00 in0.0 mm 0.00 in0.0 mm
12:48 AM 57.9°F14.4°C 52.2°F11.2°C 81% 4.9 mph N7.9 kmh N 12.5 mph20.1 kmh 30.16 in1021.3 mb 0.00 in0.0 mm 0.00 in0.0 mm 0.00 in0.0 mm
01:03 AM 57.7°F14.3°C 52.0°F11.1°C 81% 6.0 mph N9.7 kmh N 10.1 mph16.3 kmh 30.16 in1021.3 mb 0.00 in0.0 mm 0.00 in0.0 mm 0.00 in0.0 mm
01:18 AM 57.6°F14.2°C 51.4°F10.8°C 80% 5.6 mph N9.0 kmh N 12.5 mph20.1 kmh 30.15 in1021.0 mb 0.00 in0.0 mm 0.00 in0.0 mm 0.00 in0.0 mm
01:33 AM 57.6°F14.2°C 52.2°F11.2°C 82% 7.6 mph NNW12.2 kmh NNW 10.1 mph16.3 kmh 30.14 in1020.7 mb 0.00 in0.0 mm 0.00 in0.0 mm 0.00 in0.0 mm
01:48 AM 57.6°F14.2°C 52.5°F11.4°C 83% 5.6 mph NNW9.0 kmh NNW 10.1 mph16.3 kmh 30.14 in1020.7 mb 0.00 in0.0 mm 0.00 in0.0 mm 0.00 in0.0 mm
02:03 AM 57.6°F14.2°C 52.2°F11.2°C 82% 10.1 mph NNW16.3 kmh NNW 12.5 mph20.1 kmh 30.14 in1020.7 mb 0.00 in0.0 mm 0.00 in0.0 mm 0.00 in0.0 mm
02:18 AM 57.6°F14.2°C 51.4°F10.8°C 80% 6.3 mph NNW10.1 kmh NNW 12.5 mph20.1 kmh 30.14 in1020.7 mb 0.00 in0.0 mm 0.00 in0.0 mm 0.00 in0.0 mm
02:33 AM 57.6°F14.2°C 49.6°F9.8°C 75% 9.2 mph N14.8 kmh N 15.0 mph24.1 kmh 30.14 in1020.7 mb 0.00 in0.0 mm 0.00 in0.0 mm 0.00 in0.0 mm
02:48 AM 57.6°F14.2°C 48.2°F9.0°C 71% 8.1 mph NNW13.0 kmh NNW 12.5 mph20.1 kmh 30.14 in1020.7 mb 0.00 in0.0 mm 0.00 in0.0 mm 0.00 in0.0 mm
03:03 AM 57.6°F14.2°C 48.2°F9.0°C 71% 7.2 mph NNW11.6 kmh NNW 12.5 mph20.1 kmh 30.13 in1020.3 mb 0.00 in0.0 mm 0.00 in0.0 mm 0.00 in0.0 mm
03:18 AM 57.4°F14.1°C 49.1°F9.5°C 74% 7.8 mph NNW12.6 kmh NNW 12.5 mph20.1 kmh 30.14 in1020.7 mb 0.00 in0.0 mm 0.00 in0.0 mm 0.00 in0.0 mm
03:33 AM 57.4°F14.1°C 49.5°F9.7°C 75% 5.6 mph N9.0 kmh N 10.1 mph16.3 kmh 30.13 in1020.3 mb 0.00 in0.0 mm 0.00 in0.0 mm 0.00 in0.0 mm
03:48 AM 57.6°F14.2°C 50.4°F10.2°C 77% 7.8 mph NW12.6 kmh NW 10.1 mph16.3 kmh 30.13 in1020.3 mb 0.00 in0.0 mm 0.00 in0.0 mm 0.00 in0.0 mm
04:03 AM 57.6°F14.2°C 50.4°F10.2°C 77% 5.6 mph N9.0 kmh N 10.1 mph16.3 kmh 30.12 in1020.0 mb 0.00 in0.0 mm 0.00 in0.0 mm 0.00 in0.0 mm
04:18 AM 57.2°F14.0°C 50.0°F10.0°C 77% 4.7 mph N7.6 kmh N 10.1 mph16.3 kmh 30.13 in1020.3 mb 0.00 in0.0 mm 0.00 in0.0 mm 0.00 in0.0 mm
04:33 AM 57.0°F13.9°C 49.1°F9.5°C 75% 7.2 mph N11.6 kmh N 12.5 mph20.1 kmh 30.13 in1020.3 mb 0.00 in0.0 mm 0.00 in0.0 mm 0.00 in0.0 mm
04:48 AM 56.7°F13.7°C 49.8°F9.9°C 78% 5.6 mph NNW9.0 kmh NNW 10.1 mph16.3 kmh 30.12 in1020.0 mb 0.00 in0.0 mm 0.00 in0.0 mm 0.00 in0.0 mm
05:03 AM 56.5°F13.6°C 48.7°F9.3°C 75% 4.5 mph NNW7.2 kmh NNW 10.1 mph16.3 kmh 30.13 in1020.3 mb 0.00 in0.0 mm 0.00 in0.0 mm 0.00 in0.0 mm
05:18 AM 56.7°F13.7°C 49.1°F9.5°C 76% 7.6 mph NNW12.2 kmh NNW 10.1 mph16.3 kmh 30.13 in1020.3 mb 0.00 in0.0 mm 0.00 in0.0 mm 0.00 in0.0 mm
05:33 AM 56.5°F13.6°C 49.6°F9.8°C 78% 6.3 mph NNW10.1 kmh NNW 10.1 mph16.3 kmh 30.14 in1020.7 mb 0.00 in0.0 mm 0.00 in0.0 mm 0.00 in0.0 mm
05:48 AM 56.1°F13.4°C 50.4°F10.2°C 81% 3.8 mph N6.1 kmh N 7.6 mph12.2 kmh 30.14 in1020.7 mb 0.00 in0.0 mm 0.00 in0.0 mm 0.00 in0.0 mm
06:03 AM 56.3°F13.5°C 49.8°F9.9°C 79% 2.5 mph N4.0 kmh N 10.1 mph16.3 kmh 30.14 in1020.7 mb 0.00 in0.0 mm 0.00 in0.0 mm 0.00 in0.0 mm
06:18 AM 56.7°F13.7°C 49.8°F9.9°C 78% 5.6 mph NNW9.0 kmh NNW 10.1 mph16.3 kmh 30.14 in1020.7 mb 0.00 in0.0 mm 0.00 in0.0 mm 0.00 in0.0 mm
06:33 AM 56.7°F13.7°C 49.5°F9.7°C 77% 5.4 mph N8.7 kmh N 10.1 mph16.3 kmh 30.15 in1021.0 mb 0.00 in0.0 mm 0.00 in0.0 mm 0.00 in0.0 mm
06:48 AM 56.7°F13.7°C 49.5°F9.7°C 77% 6.3 mph NNW10.1 kmh NNW 10.1 mph16.3 kmh 30.15 in1021.0 mb 0.00 in0.0 mm 0.00 in0.0 mm 0.00 in0.0 mm
07:03 AM 56.7°F13.7°C 49.5°F9.7°C 77% 3.1 mph NW5.0 kmh NW 7.6 mph12.2 kmh 30.16 in1021.3 mb 0.00 in0.0 mm 0.00 in0.0 mm 0.00 in0.0 mm
07:18 AM 56.7°F13.7°C 49.8°F9.9°C 78% 4.5 mph N7.2 kmh N 10.1 mph16.3 kmh 30.16 in1021.3 mb 0.00 in0.0 mm 0.00 in0.0 mm 0.00 in0.0 mm
07:33 AM 56.8°F13.8°C 50.4°F10.2°C 79% 4.7 mph NNW7.6 kmh NNW 10.1 mph16.3 kmh 30.17 in1021.7 mb 0.00 in0.0 mm 0.00 in0.0 mm 0.00 in0.0 mm
07:49 AM 57.0°F13.9°C 50.5°F10.3°C 79% 4.9 mph NW7.9 kmh NW 7.6 mph12.2 kmh 30.17 in1021.7 mb 0.00 in0.0 mm 0.00 in0.0 mm 0.00 in0.0 mm
08:04 AM 57.2°F14.0°C 50.4°F10.2°C 78% 3.1 mph NNW5.0 kmh NNW 10.1 mph16.3 kmh 30.18 in1022.0 mb 0.00 in0.0 mm 0.00 in0.0 mm 0.00 in0.0 mm
08:19 AM 57.2°F14.0°C 49.6°F9.8°C 76% 2.9 mph NNW4.7 kmh NNW 7.6 mph12.2 kmh 30.18 in1022.0 mb 0.00 in0.0 mm 0.00 in0.0 mm 0.00 in0.0 mm
08:34 AM 57.9°F14.4°C 50.7°F10.4°C 77% 2.5 mph N4.0 kmh N 7.6 mph12.2 kmh 30.18 in1022.0 mb 0.00 in0.0 mm 0.00 in0.0 mm 0.00 in0.0 mm
08:49 AM 59.0°F15.0°C 51.4°F10.8°C 76% 2.9 mph N4.7 kmh N 7.6 mph12.2 kmh 30.18 in1022.0 mb 0.00 in0.0 mm 0.00 in0.0 mm 0.00 in0.0 mm
09:04 AM 59.4°F15.2°C 52.2°F11.2°C 77% 1.8 mph N2.9 kmh N 10.1 mph16.3 kmh 30.19 in1022.4 mb 0.00 in0.0 mm 0.00 in0.0 mm 0.00 in0.0 mm
09:19 AM 60.3°F15.7°C 51.6°F10.9°C 73% 1.8 mph SSW2.9 kmh SSW 4.9 mph7.9 kmh 30.19 in1022.4 mb 0.00 in0.0 mm 0.00 in0.0 mm 0.00 in0.0 mm
09:34 AM 61.9°F16.6°C 52.7°F11.5°C 72% Calm Calm 4.9 mph7.9 kmh 30.19 in1022.4 mb 0.00 in0.0 mm 0.00 in0.0 mm 0.00 in0.0 mm
09:49 AM 63.0°F17.2°C 53.8°F12.1°C 72% Calm Calm 4.9 mph7.9 kmh 30.18 in1022.0 mb 0.00 in0.0 mm 0.00 in0.0 mm 0.00 in0.0 mm
10:04 AM 63.3°F17.4°C 53.8°F12.1°C 71% 4.5 mph SSE7.2 kmh SSE 7.6 mph12.2 kmh 30.18 in1022.0 mb 0.00 in0.0 mm 0.00 in0.0 mm 0.00 in0.0 mm
10:19 AM 64.0°F17.8°C 51.6°F10.9°C 64% 0.7 mph NE1.1 kmh NE 10.1 mph16.3 kmh 30.19 in1022.4 mb 0.00 in0.0 mm 0.00 in0.0 mm 0.00 in0.0 mm
10:34 AM 65.1°F18.4°C 53.1°F11.7°C 65% 4.5 mph S7.2 kmh S 7.6 mph12.2 kmh 30.18 in1022.0 mb 0.00 in0.0 mm 0.00 in0.0 mm 0.00 in0.0 mm
10:49 AM 65.5°F18.6°C 55.0°F12.8°C 69% 7.8 mph E12.6 kmh E 12.5 mph20.1 kmh 30.19 in1022.4 mb 0.00 in0.0 mm 0.00 in0.0 mm 0.00 in0.0 mm
11:04 AM 64.8°F18.2°C 54.0°F12.2°C 68% 4.5 mph ESE7.2 kmh ESE 12.5 mph20.1 kmh 30.19 in1022.4 mb 0.00 in0.0 mm 0.00 in0.0 mm 0.00 in0.0 mm
11:19 AM 65.1°F18.4°C 51.3°F10.7°C 61% 0.7 mph S1.1 kmh S 10.1 mph16.3 kmh 30.18 in1022.0 mb 0.00 in0.0 mm 0.00 in0.0 mm 0.00 in0.0 mm
11:34 AM 66.2°F19.0°C 51.4°F10.8°C 59% 6.5 mph S10.5 kmh S 10.1 mph16.3 kmh 30.18 in1022.0 mb 0.00 in0.0 mm 0.00 in0.0 mm 0.00 in0.0 mm
11:49 AM 66.6°F19.2°C 53.1°F11.7°C 62% 4.9 mph ESE7.9 kmh ESE 10.1 mph16.3 kmh 30.18 in1022.0 mb 0.00 in0.0 mm 0.00 in0.0 mm 0.00 in0.0 mm
12:04 PM 66.2°F19.0°C 53.2°F11.8°C 63% 1.6 mph S2.6 kmh S 12.5 mph20.1 kmh 30.17 in1021.7 mb 0.00 in0.0 mm 0.00 in0.0 mm 0.00 in0.0 mm
12:19 PM 66.2°F19.0°C 52.3°F11.3°C 61% 1.8 mph SW2.9 kmh SW 15.0 mph24.1 kmh 30.17 in1021.7 mb 0.00 in0.0 mm 0.00 in0.0 mm 0.00 in0.0 mm
12:34 PM 66.2°F19.0°C 54.1°F12.3°C 65% 3.8 mph S6.1 kmh S 15.0 mph24.1 kmh 30.16 in1021.3 mb 0.00 in0.0 mm 0.00 in0.0 mm 0.00 in0.0 mm
12:49 PM 66.4°F19.1°C 51.1°F10.6°C 58% 0.7 mph WSW1.1 kmh WSW 12.5 mph20.1 kmh 30.16 in1021.3 mb 0.00 in0.0 mm 0.00 in0.0 mm 0.00 in0.0 mm
01:04 PM 66.7°F19.3°C 50.5°F10.3°C 56% 1.8 mph E2.9 kmh E 12.5 mph20.1 kmh 30.15 in1021.0 mb 0.00 in0.0 mm 0.00 in0.0 mm 0.00 in0.0 mm
01:19 PM 66.9°F19.4°C 51.3°F10.7°C 57% 4.9 mph S7.9 kmh S 12.5 mph20.1 kmh 30.14 in1020.7 mb 0.00 in0.0 mm 0.00 in0.0 mm 0.00 in0.0 mm
01:34 PM 66.9°F19.4°C 51.3°F10.7°C 57% 6.5 mph ESE10.5 kmh ESE 17.4 mph28.0 kmh 30.14 in1020.7 mb 0.00 in0.0 mm 0.00 in0.0 mm 0.00 in0.0 mm
01:49 PM 67.1°F19.5°C 49.8°F9.9°C 54% 10.3 mph NW16.6 kmh NW 17.4 mph28.0 kmh 30.14 in1020.7 mb 0.00 in0.0 mm 0.00 in0.0 mm 0.00 in0.0 mm
02:04 PM 67.1°F19.5°C 48.9°F9.4°C 52% 7.6 mph S12.2 kmh S 17.4 mph28.0 kmh 30.13 in1020.3 mb 0.00 in0.0 mm 0.00 in0.0 mm 0.00 in0.0 mm
02:19 PM 66.9°F19.4°C 49.3°F9.6°C 53% 0.2 mph SE0.3 kmh SE 10.1 mph16.3 kmh 30.13 in1020.3 mb 0.00 in0.0 mm 0.00 in0.0 mm 0.00 in0.0 mm
02:34 PM 66.4°F19.1°C 51.1°F10.6°C 58% 1.3 mph WSW2.1 kmh WSW 22.6 mph36.4 kmh 30.13 in1020.3 mb 0.00 in0.0 mm 0.00 in0.0 mm 0.00 in0.0 mm
02:49 PM 64.9°F18.3°C 48.4°F9.1°C 55% 18.1 mph NW29.1 kmh NW 25.1 mph40.4 kmh 30.13 in1020.3 mb 0.00 in0.0 mm 0.00 in0.0 mm 0.00 in0.0 mm
03:05 PM 63.7°F17.6°C 48.6°F9.2°C 58% 6.9 mph NNW11.1 kmh NNW 27.5 mph44.3 kmh 30.14 in1020.7 mb 0.00 in0.0 mm 0.00 in0.0 mm 0.00 in0.0 mm
03:20 PM 63.1°F17.3°C 48.2°F9.0°C 58% 4.5 mph N7.2 kmh N 20.1 mph32.3 kmh 30.13 in1020.3 mb 0.00 in0.0 mm 0.00 in0.0 mm 0.00 in0.0 mm
03:35 PM 63.7°F17.6°C 48.6°F9.2°C 58% 2.2 mph S3.5 kmh S 20.1 mph32.3 kmh 30.13 in1020.3 mb 0.00 in0.0 mm 0.00 in0.0 mm 0.00 in0.0 mm
03:50 PM 64.4°F18.0°C 50.2°F10.1°C 60% 11.2 mph NW18.0 kmh NW 22.6 mph36.4 kmh 30.13 in1020.3 mb 0.00 in0.0 mm 0.00 in0.0 mm 0.00 in0.0 mm
04:05 PM 65.1°F18.4°C 49.1°F9.5°C 56% 2.2 mph S3.5 kmh S 12.5 mph20.1 kmh 30.13 in1020.3 mb 0.00 in0.0 mm 0.00 in0.0 mm 0.00 in0.0 mm
04:20 PM 66.0°F18.9°C 51.8°F11.0°C 60% 1.8 mph NNE2.9 kmh NNE 12.5 mph20.1 kmh 30.13 in1020.3 mb 0.00 in0.0 mm 0.00 in0.0 mm 0.00 in0.0 mm
04:35 PM 65.5°F18.6°C 53.1°F11.7°C 64% 0.7 mph E1.1 kmh E 10.1 mph16.3 kmh 30.13 in1020.3 mb 0.00 in0.0 mm 0.00 in0.0 mm 0.00 in0.0 mm
04:50 PM 64.0°F17.8°C 51.6°F10.9°C 64% 3.8 mph NE6.1 kmh NE 10.1 mph16.3 kmh 30.14 in1020.7 mb 0.00 in0.0 mm 0.00 in0.0 mm 0.00 in0.0 mm
05:05 PM 63.3°F17.4°C 50.9°F10.5°C 64% Calm Calm 7.6 mph12.2 kmh 30.13 in1020.3 mb 0.00 in0.0 mm 0.00 in0.0 mm 0.00 in0.0 mm
05:20 PM 62.8°F17.1°C 50.9°F10.5°C 65% Calm Calm 2.5 mph4.0 kmh 30.13 in1020.3 mb 0.00 in0.0 mm 0.00 in0.0 mm 0.00 in0.0 mm
05:35 PM 62.2°F16.8°C 50.7°F10.4°C 66% Calm Calm 4.9 mph7.9 kmh 30.13 in1020.3 mb 0.00 in0.0 mm 0.00 in0.0 mm 0.00 in0.0 mm
05:50 PM 61.9°F16.6°C 50.7°F10.4°C 67% 0.2 mph SSW0.3 kmh SSW 7.6 mph12.2 kmh 30.14 in1020.7 mb 0.00 in0.0 mm 0.00 in0.0 mm 0.00 in0.0 mm
06:05 PM 61.5°F16.4°C 51.6°F10.9°C 70% Calm Calm 7.6 mph12.2 kmh 30.14 in1020.7 mb 0.00 in0.0 mm 0.00 in0.0 mm 0.00 in0.0 mm
06:20 PM 61.2°F16.2°C 52.0°F11.1°C 72% Calm Calm 2.5 mph4.0 kmh 30.15 in1021.0 mb 0.00 in0.0 mm 0.00 in0.0 mm 0.00 in0.0 mm
06:35 PM 60.4°F15.8°C 51.8°F11.0°C 73% 1.8 mph NW2.9 kmh NW 4.9 mph7.9 kmh 30.14 in1020.7 mb 0.00 in0.0 mm 0.00 in0.0 mm 0.00 in0.0 mm
06:50 PM 60.1°F15.6°C 51.8°F11.0°C 74% 2.9 mph NNW4.7 kmh NNW 4.9 mph7.9 kmh 30.15 in1021.0 mb 0.00 in0.0 mm 0.00 in0.0 mm 0.00 in0.0 mm
07:05 PM 60.1°F15.6°C 51.8°F11.0°C 74% 1.3 mph N2.1 kmh N 4.9 mph7.9 kmh 30.15 in1021.0 mb 0.00 in0.0 mm 0.00 in0.0 mm 0.00 in0.0 mm
07:20 PM 60.3°F15.7°C 52.0°F11.1°C 74% 0.7 mph NNE1.1 kmh NNE 7.6 mph12.2 kmh 30.15 in1021.0 mb 0.00 in0.0 mm 0.00 in0.0 mm 0.00 in0.0 mm
07:35 PM 60.4°F15.8°C 50.2°F10.1°C 69% Calm Calm 12.5 mph20.1 kmh 30.14 in1020.7 mb 0.00 in0.0 mm 0.00 in0.0 mm 0.00 in0.0 mm
07:50 PM 60.8°F16.0°C 50.5°F10.3°C 69% 3.4 mph SSE5.5 kmh SSE 12.5 mph20.1 kmh 30.14 in1020.7 mb 0.00 in0.0 mm 0.00 in0.0 mm 0.00 in0.0 mm
08:05 PM 60.8°F16.0°C 49.8°F9.9°C 67% 3.4 mph E5.5 kmh E 12.5 mph20.1 kmh 30.15 in1021.0 mb 0.00 in0.0 mm 0.00 in0.0 mm 0.00 in0.0 mm
08:20 PM 60.4°F15.8°C 50.2°F10.1°C 69% Calm Calm 17.4 mph28.0 kmh 30.16 in1021.3 mb 0.00 in0.0 mm 0.00 in0.0 mm 0.00 in0.0 mm
08:35 PM 60.1°F15.6°C 50.2°F10.1°C 70% 0.2 mph SSW0.3 kmh SSW 10.1 mph16.3 kmh 30.16 in1021.3 mb 0.00 in0.0 mm 0.00 in0.0 mm 0.00 in0.0 mm
08:50 PM 59.7°F15.4°C 50.4°F10.2°C 71% Calm Calm 4.9 mph7.9 kmh 30.16 in1021.3 mb 0.00 in0.0 mm 0.00 in0.0 mm 0.00 in0.0 mm
09:05 PM 59.7°F15.4°C 50.4°F10.2°C 71% Calm Calm 4.9 mph7.9 kmh 30.17 in1021.7 mb 0.00 in0.0 mm 0.00 in0.0 mm 0.00 in0.0 mm
09:20 PM 59.7°F15.4°C 50.7°F10.4°C 72% 3.4 mph NW5.5 kmh NW 4.9 mph7.9 kmh 30.17 in1021.7 mb 0.00 in0.0 mm 0.00 in0.0 mm 0.00 in0.0 mm
09:35 PM 59.5°F15.3°C 51.3°F10.7°C 74% 4.7 mph NNW7.6 kmh NNW 7.6 mph12.2 kmh 30.18 in1022.0 mb 0.00 in0.0 mm 0.00 in0.0 mm 0.00 in0.0 mm
09:50 PM 59.4°F15.2°C 51.4°F10.8°C 75% 3.4 mph NW5.5 kmh NW 7.6 mph12.2 kmh 30.17 in1021.7 mb 0.00 in0.0 mm 0.00 in0.0 mm 0.00 in0.0 mm
10:05 PM 58.8°F14.9°C 52.0°F11.1°C 78% 3.8 mph NNW6.1 kmh NNW 7.6 mph12.2 kmh 30.17 in1021.7 mb 0.00 in0.0 mm 0.00 in0.0 mm 0.00 in0.0 mm
10:21 PM 58.3°F14.6°C 52.5°F11.4°C 81% 8.7 mph NNW14.0 kmh NNW 10.1 mph16.3 kmh 30.19 in1022.4 mb 0.00 in0.0 mm 0.00 in0.0 mm 0.00 in0.0 mm
10:36 PM 57.7°F14.3°C 52.0°F11.1°C 81% 8.5 mph NNW13.7 kmh NNW 12.5 mph20.1 kmh 30.18 in1022.0 mb 0.00 in0.0 mm 0.00 in0.0 mm 0.00 in0.0 mm
10:51 PM 57.7°F14.3°C 51.6°F10.9°C 80% Calm Calm 12.5 mph20.1 kmh 30.18 in1022.0 mb 0.00 in0.0 mm 0.00 in0.0 mm 0.00 in0.0 mm
11:06 PM 57.9°F14.4°C 51.8°F11.0°C 80% 2.2 mph NNW3.5 kmh NNW 7.6 mph12.2 kmh 30.19 in1022.4 mb 0.00 in0.0 mm 0.00 in0.0 mm 0.00 in0.0 mm
11:21 PM 57.9°F14.4°C 52.5°F11.4°C 82% 4.5 mph NNW7.2 kmh NNW 12.5 mph20.1 kmh 30.18 in1022.0 mb 0.00 in0.0 mm 0.00 in0.0 mm 0.00 in0.0 mm
11:36 PM 57.7°F14.3°C 52.0°F11.1°C 81% 3.8 mph NNW6.1 kmh NNW 12.5 mph20.1 kmh 30.18 in1022.0 mb 0.00 in0.0 mm 0.00 in0.0 mm 0.00 in0.0 mm
11:51 PM 57.6°F14.2°C 52.5°F11.4°C 83% 6.0 mph NW9.7 kmh NW 10.1 mph16.3 kmh 30.18 in1022.0 mb 0.00 in0.0 mm 0.00 in0.0 mm 0.00 in0.0 mm